Time;durP1;ratioP1;P1;durP2;ratioP2;P2;SDS_P1;SDS_P2;PMS_P1;PMS_P2;Temp;Humidity;BMP_temperature;BMP_pressure;BME280_temperature;BME280_humidity;BME280_pressure;Samples;Min_cycle;Max_cycle;Signal;HPM_P1;HPM_P2
2022/01/17 00:00:57;;;;;;;10.57;7.27;;;;;;;;;;5036544;28;20178;-75
2022/01/17 00:03:24;;;;;;;12.53;6.97;;;;;;;;;;5038387;28;20184;-75
2022/01/17 00:05:52;;;;;;;9.90;6.53;;;;;;;;;;5035897;28;20174;-75
2022/01/17 00:08:18;;;;;;;8.37;6.67;;;;;;;;;;5035723;28;20190;-75
2022/01/17 00:10:43;;;;;;;11.67;6.87;;;;;;;;;;5040411;28;20221;-75
2022/01/17 00:13:13;;;;;;;10.40;7.20;;;;;;;;;;5038335;28;20192;-75
2022/01/17 00:15:48;;;;;;;8.47;6.23;;;;;;;;;;5053099;28;20302;-74
2022/01/17 00:20:44;;;;;;;11.37;6.27;;;;;;;;;;5050061;28;20186;-75
2022/01/17 00:23:09;;;;;;;7.90;5.53;;;;;;;;;;5034685;28;20243;-75
2022/01/17 00:25:34;;;;;;;9.27;6.22;;;;;;;;;;5036200;28;20193;-75
2022/01/17 00:27:59;;;;;;;9.00;5.27;;;;;;;;;;5048906;28;20194;-75
2022/01/17 00:30:25;;;;;;;7.60;5.13;;;;;;;;;;5034074;28;20205;-75
2022/01/17 00:32:50;;;;;;;6.77;5.03;;;;;;;;;;5035089;28;20232;-75
2022/01/17 00:35:15;;;;;;;7.03;5.17;;;;;;;;;;5037146;28;20170;-74
2022/01/17 00:37:41;;;;;;;9.17;6.07;;;;;;;;;;5031027;28;20182;-75
2022/01/17 00:40:06;;;;;;;6.40;5.33;;;;;;;;;;5053043;28;20182;-75
2022/01/17 00:42:31;;;;;;;8.20;5.70;;;;;;;;;;5036826;28;20174;-75
2022/01/17 00:44:57;;;;;;;7.97;5.53;;;;;;;;;;5034602;28;20178;-75
2022/01/17 00:47:22;;;;;;;9.60;6.00;;;;;;;;;;5034186;28;20182;-75
2022/01/17 00:49:47;;;;;;;8.77;5.40;;;;;;;;;;5034738;28;20197;-75
2022/01/17 00:52:12;;;;;;;6.57;5.60;;;;;;;;;;5035299;28;20175;-75
2022/01/17 00:54:37;;;;;;;9.67;5.97;;;;;;;;;;5016832;28;20189;-74
2022/01/17 00:57:03;;;;;;;9.40;7.20;;;;;;;;;;5016949;28;20179;-75
2022/01/17 00:59:28;;;;;;;9.70;5.70;;;;;;;;;;5014460;28;20233;-75
2022/01/17 01:01:54;;;;;;;11.83;7.70;;;;;;;;;;5014939;28;20182;-75
2022/01/17 01:04:19;;;;;;;10.33;7.27;;;;;;;;;;5035145;28;20261;-74
2022/01/17 01:06:44;;;;;;;11.13;8.03;;;;;;;;;;5016976;28;20194;-74
2022/01/17 01:09:09;;;;;;;11.23;8.73;;;;;;;;;;5014864;28;20192;-74
2022/01/17 01:11:35;;;;;;;12.13;10.07;;;;;;;;;;5015908;28;20188;-74
2022/01/17 01:14:00;;;;;;;14.60;10.80;;;;;;;;;;5032548;28;20171;-74
2022/01/17 01:16:33;;;;;;;16.47;10.23;;;;;;;;;;5014338;28;20266;-74
2022/01/17 01:21:58;;;;;;;12.90;8.63;;;;;;;;;;5039594;28;20175;-74
2022/01/17 01:29:56;;;;;;;16.67;11.03;;;;;;;;;;5026849;28;20218;-75
2022/01/17 01:32:25;;;;;;;16.30;11.80;;;;;;;;;;5014145;28;20182;-74
2022/01/17 01:34:54;;;;;;;21.63;14.33;;;;;;;;;;5013708;28;20224;-74
2022/01/17 01:37:19;;;;;;;20.33;13.57;;;;;;;;;;5015919;28;20197;-74
2022/01/17 01:39:46;;;;;;;22.53;14.07;;;;;;;;;;5013875;28;20819;-74
2022/01/17 01:42:17;;;;;;;18.20;13.93;;;;;;;;;;5030406;28;20179;-74
2022/01/17 01:44:43;;;;;;;22.93;14.77;;;;;;;;;;5030285;28;20257;-74
2022/01/17 01:47:08;;;;;;;20.20;15.17;;;;;;;;;;5014987;28;20178;-74
2022/01/17 01:49:33;;;;;;;16.80;12.53;;;;;;;;;;5017450;28;20270;-74
2022/01/17 01:51:58;;;;;;;20.40;12.70;;;;;;;;;;5013752;28;20179;-74
2022/01/17 01:54:24;;;;;;;17.37;12.63;;;;;;;;;;5032501;28;20218;-74
2022/01/17 01:56:50;;;;;;;19.43;11.97;;;;;;;;;;5037500;28;20181;-74
2022/01/17 01:59:16;;;;;;;17.70;12.43;;;;;;;;;;5052638;28;20251;-74
2022/01/17 02:01:41;;;;;;;17.47;11.23;;;;;;;;;;5035343;28;20177;-75
2022/01/17 02:04:07;;;;;;;18.37;11.17;;;;;;;;;;5037068;28;20170;-74
2022/01/17 02:06:35;;;;;;;14.53;10.20;;;;;;;;;;5036567;28;20201;-74
2022/01/17 02:09:00;;;;;;;16.80;11.00;;;;;;;;;;5036680;28;20170;-74
2022/01/17 02:11:26;;;;;;;15.13;11.23;;;;;;;;;;5051012;28;20205;-74
2022/01/17 02:13:51;;;;;;;18.87;10.07;;;;;;;;;;5034304;28;20172;-74
2022/01/17 02:16:16;;;;;;;14.83;10.30;;;;;;;;;;5033060;28;20170;-74
2022/01/17 02:18:43;;;;;;;15.63;11.47;;;;;;;;;;5036212;28;20298;-74
2022/01/17 02:21:13;;;;;;;14.03;10.23;;;;;;;;;;5049852;28;20223;-74
2022/01/17 02:23:39;;;;;;;14.33;8.67;;;;;;;;;;5033635;28;20182;-74
2022/01/17 02:26:04;;;;;;;14.63;10.47;;;;;;;;;;5052134;28;20215;-74
2022/01/17 02:28:33;;;;;;;13.00;8.80;;;;;;;;;;5034879;28;20246;-74
2022/01/17 02:30:58;;;;;;;13.87;10.83;;;;;;;;;;5028730;28;20395;-74
2022/01/17 02:33:23;;;;;;;15.00;9.73;;;;;;;;;;5048385;28;21444;-74
2022/01/17 02:35:49;;;;;;;12.87;9.57;;;;;;;;;;5031174;28;20210;-74
2022/01/17 02:38:14;;;;;;;12.67;8.80;;;;;;;;;;5031251;28;20169;-74
2022/01/17 02:40:40;;;;;;;13.37;8.83;;;;;;;;;;5030373;28;20269;-74
2022/01/17 02:43:07;;;;;;;12.23;9.37;;;;;;;;;;5050838;28;20189;-74
2022/01/17 02:45:35;;;;;;;11.80;8.27;;;;;;;;;;5032735;28;20265;-74
2022/01/17 02:48:03;;;;;;;11.43;7.57;;;;;;;;;;5035086;28;20488;-74
2022/01/17 02:50:28;;;;;;;14.77;8.40;;;;;;;;;;5047935;28;20197;-74
2022/01/17 02:53:01;;;;;;;11.30;8.30;;;;;;;;;;5030068;28;20238;-74
2022/01/17 02:55:27;;;;;;;13.17;9.07;;;;;;;;;;5032562;28;20184;-74
2022/01/17 02:57:52;;;;;;;15.07;9.97;;;;;;;;;;5035197;28;20174;-74
2022/01/17 03:00:17;;;;;;;12.23;8.80;;;;;;;;;;5031536;28;20217;-74
2022/01/17 03:02:46;;;;;;;11.87;9.33;;;;;;;;;;5032837;28;20220;-74
2022/01/17 03:05:12;;;;;;;13.50;9.43;;;;;;;;;;5033642;28;20182;-74
2022/01/17 03:07:37;;;;;;;13.63;10.27;;;;;;;;;;5031880;28;20178;-74
2022/01/17 03:10:04;;;;;;;13.33;9.33;;;;;;;;;;5034238;28;20212;-74
2022/01/17 03:12:30;;;;;;;13.00;8.80;;;;;;;;;;5032317;28;20211;-74
2022/01/17 03:14:55;;;;;;;15.53;9.43;;;;;;;;;;5050201;28;20249;-74
2022/01/17 03:17:21;;;;;;;14.30;8.63;;;;;;;;;;5032048;28;20268;-74
2022/01/17 03:19:46;;;;;;;14.37;9.63;;;;;;;;;;5032535;28;20166;-74
2022/01/17 03:22:11;;;;;;;12.67;9.50;;;;;;;;;;5031691;28;20170;-74
2022/01/17 03:24:36;;;;;;;13.18;7.88;;;;;;;;;;5032839;28;20170;-74
2022/01/17 03:27:01;;;;;;;12.77;8.83;;;;;;;;;;5029320;28;20187;-74
2022/01/17 03:29:26;;;;;;;16.47;8.43;;;;;;;;;;5032369;28;20198;-74
2022/01/17 03:31:52;;;;;;;10.43;7.40;;;;;;;;;;5047707;28;20171;-74
2022/01/17 03:34:17;;;;;;;13.03;8.47;;;;;;;;;;5050524;28;20199;-74
2022/01/17 03:36:44;;;;;;;16.27;9.00;;;;;;;;;;5031251;28;20473;-74
2022/01/17 03:39:09;;;;;;;9.97;6.67;;;;;;;;;;5034048;28;20186;-74
2022/01/17 03:41:34;;;;;;;12.27;8.00;;;;;;;;;;5031772;28;20182;-74
2022/01/17 03:44:00;;;;;;;13.23;8.07;;;;;;;;;;5031601;28;20202;-74
2022/01/17 03:46:26;;;;;;;13.50;8.80;;;;;;;;;;5031481;28;20188;-74
2022/01/17 03:48:52;;;;;;;12.20;7.77;;;;;;;;;;5049150;28;20177;-74
2022/01/17 03:51:17;;;;;;;10.37;7.57;;;;;;;;;;5029859;28;20201;-74
2022/01/17 03:53:42;;;;;;;12.80;6.70;;;;;;;;;;5028190;28;20309;-74
2022/01/17 03:56:07;;;;;;;11.73;7.57;;;;;;;;;;5032167;28;20595;-74
2022/01/17 03:58:32;;;;;;;11.23;7.17;;;;;;;;;;5049338;28;20248;-74
2022/01/17 04:00:58;;;;;;;12.93;7.63;;;;;;;;;;5030758;28;20394;-74
2022/01/17 04:03:23;;;;;;;10.63;7.67;;;;;;;;;;5031339;28;20183;-74
2022/01/17 04:05:49;;;;;;;11.47;8.17;;;;;;;;;;5031452;28;20178;-74
2022/01/17 04:08:14;;;;;;;14.20;9.63;;;;;;;;;;5046686;28;20208;-74
2022/01/17 04:10:39;;;;;;;10.37;8.37;;;;;;;;;;5052203;28;20206;-74
2022/01/17 04:13:05;;;;;;;12.27;7.83;;;;;;;;;;5053286;28;20178;-74
2022/01/17 04:15:31;;;;;;;13.93;9.37;;;;;;;;;;5035182;28;20178;-74
2022/01/17 04:17:56;;;;;;;9.97;6.83;;;;;;;;;;5034519;28;20170;-73
2022/01/17 04:20:29;;;;;;;13.17;8.20;;;;;;;;;;5034929;28;20172;-74
2022/01/17 04:22:58;;;;;;;14.50;9.00;;;;;;;;;;5034869;28;20472;-73
2022/01/17 04:25:26;;;;;;;13.00;9.53;;;;;;;;;;5038414;28;20262;-73
2022/01/17 04:27:52;;;;;;;14.07;10.23;;;;;;;;;;5038074;28;20205;-74
2022/01/17 04:30:18;;;;;;;13.43;9.80;;;;;;;;;;5047138;28;20198;-73
2022/01/17 04:32:44;;;;;;;18.27;11.23;;;;;;;;;;5035559;28;20265;-73
2022/01/17 04:35:09;;;;;;;12.37;8.53;;;;;;;;;;5035489;28;20182;-74
2022/01/17 04:37:35;;;;;;;17.37;10.17;;;;;;;;;;5036539;28;20220;-73
2022/01/17 04:40:00;;;;;;;13.70;11.20;;;;;;;;;;5035201;28;20182;-74
2022/01/17 04:42:28;;;;;;;13.90;9.57;;;;;;;;;;5036852;28;20268;-73
2022/01/17 04:45:10;;;;;;;14.93;10.67;;;;;;;;;;5034737;28;20182;-74
2022/01/17 04:47:36;;;;;;;14.87;10.03;;;;;;;;;;5034054;28;20178;-74
2022/01/17 04:50:09;;;;;;;15.67;9.47;;;;;;;;;;5052315;28;20335;-74
2022/01/17 04:52:36;;;;;;;12.10;9.87;;;;;;;;;;5050912;28;20226;-73
2022/01/17 04:55:02;;;;;;;15.13;10.63;;;;;;;;;;5022116;28;20185;-73
2022/01/17 04:57:28;;;;;;;17.07;8.63;;;;;;;;;;5015015;28;20170;-73
2022/01/17 04:59:53;;;;;;;9.63;6.47;;;;;;;;;;5019355;28;20183;-73
2022/01/17 05:02:19;;;;;;;15.17;8.70;;;;;;;;;;5017109;28;20183;-74
2022/01/17 05:04:45;;;;;;;13.90;10.20;;;;;;;;;;5020162;28;20185;-74
2022/01/17 05:07:10;;;;;;;16.67;9.57;;;;;;;;;;5018304;28;20183;-74
2022/01/17 05:09:38;;;;;;;19.30;11.33;;;;;;;;;;5013491;28;20268;-73
2022/01/17 05:12:03;;;;;;;13.13;8.77;;;;;;;;;;5012880;28;20193;-73
2022/01/17 05:14:29;;;;;;;16.33;8.93;;;;;;;;;;5018186;28;20391;-73
2022/01/17 05:17:02;;;;;;;12.03;8.67;;;;;;;;;;5033298;28;20186;-73
2022/01/17 05:22:11;;;;;;;13.77;9.53;;;;;;;;;;5029893;28;20325;-74
2022/01/17 05:24:36;;;;;;;14.63;10.13;;;;;;;;;;5022646;28;20257;-73
2022/01/17 05:27:02;;;;;;;20.33;10.73;;;;;;;;;;5013453;28;20171;-74
2022/01/17 05:29:27;;;;;;;13.60;9.43;;;;;;;;;;5011141;28;20178;-73
2022/01/17 05:31:52;;;;;;;16.10;9.77;;;;;;;;;;5027059;28;20186;-74
2022/01/17 05:34:18;;;;;;;15.03;9.60;;;;;;;;;;5038930;28;20205;-73
2022/01/17 05:36:43;;;;;;;16.03;11.27;;;;;;;;;;5030776;28;20192;-73
2022/01/17 05:39:08;;;;;;;13.50;8.40;;;;;;;;;;5014519;28;20260;-73
2022/01/17 05:41:33;;;;;;;15.88;9.82;;;;;;;;;;5015693;28;20237;-73
2022/01/17 05:43:59;;;;;;;14.97;9.63;;;;;;;;;;5012768;28;20201;-73
2022/01/17 05:46:24;;;;;;;13.33;9.13;;;;;;;;;;5015067;28;20186;-73
2022/01/17 05:48:50;;;;;;;14.40;9.83;;;;;;;;;;5041511;28;20213;-73
2022/01/17 05:51:15;;;;;;;12.93;8.93;;;;;;;;;;5031674;28;20198;-73
2022/01/17 05:53:40;;;;;;;12.37;9.17;;;;;;;;;;5023735;28;20236;-73
2022/01/17 05:56:05;;;;;;;11.97;7.57;;;;;;;;;;5031455;28;20174;-73
2022/01/17 05:58:30;;;;;;;12.43;8.77;;;;;;;;;;5032437;28;20250;-73
2022/01/17 06:00:56;;;;;;;13.77;8.87;;;;;;;;;;5029007;28;20197;-73
2022/01/17 06:03:21;;;;;;;9.97;6.33;;;;;;;;;;5029595;28;20179;-73
2022/01/17 06:05:46;;;;;;;10.50;7.23;;;;;;;;;;5031264;28;20186;-74
2022/01/17 06:08:11;;;;;;;13.13;8.23;;;;;;;;;;5030371;28;20182;-73
2022/01/17 06:10:38;;;;;;;14.03;8.83;;;;;;;;;;5028699;28;20194;-74
2022/01/17 06:13:03;;;;;;;13.53;7.97;;;;;;;;;;5027557;28;20182;-73
2022/01/17 06:15:28;;;;;;;11.17;7.53;;;;;;;;;;5031198;28;20183;-73
2022/01/17 06:17:53;;;;;;;12.70;7.43;;;;;;;;;;5030961;28;20183;-73
2022/01/17 06:20:19;;;;;;;13.20;7.30;;;;;;;;;;4997538;28;20180;-73
2022/01/17 06:22:44;;;;;;;11.03;6.50;;;;;;;;;;5026728;28;20561;-73
2022/01/17 06:25:10;;;;;;;8.33;6.43;;;;;;;;;;5031267;28;20179;-73
2022/01/17 06:27:35;;;;;;;7.23;5.40;;;;;;;;;;5029438;28;20185;-73
2022/01/17 06:30:00;;;;;;;9.80;5.87;;;;;;;;;;5024951;28;20289;-73
2022/01/17 06:32:26;;;;;;;9.50;6.90;;;;;;;;;;5029002;28;20189;-73
2022/01/17 06:34:51;;;;;;;12.60;8.57;;;;;;;;;;5028369;28;20194;-73
2022/01/17 06:37:17;;;;;;;23.30;14.83;;;;;;;;;;5031162;28;20181;-73
2022/01/17 06:39:42;;;;;;;9.53;7.07;;;;;;;;;;5030839;28;20229;-73
2022/01/17 06:42:07;;;;;;;8.20;6.50;;;;;;;;;;5028759;28;20171;-73
2022/01/17 06:44:33;;;;;;;10.17;6.03;;;;;;;;;;5051178;28;20207;-73
2022/01/17 06:46:58;;;;;;;11.20;8.80;;;;;;;;;;5031489;28;20263;-73
2022/01/17 06:49:23;;;;;;;10.67;8.47;;;;;;;;;;5035537;28;20313;-73
2022/01/17 06:51:49;;;;;;;14.13;9.63;;;;;;;;;;5049116;28;20224;-73
2022/01/17 06:54:15;;;;;;;11.30;8.13;;;;;;;;;;5033027;28;20308;-73
2022/01/17 06:56:44;;;;;;;10.53;7.87;;;;;;;;;;5032598;28;20289;-73
2022/01/17 06:59:13;;;;;;;14.03;9.70;;;;;;;;;;5034722;28;20471;-73
2022/01/17 07:01:38;;;;;;;14.37;8.70;;;;;;;;;;5033021;28;20794;-73
2022/01/17 07:04:03;;;;;;;11.13;6.70;;;;;;;;;;5046866;28;20276;-73
2022/01/17 07:06:29;;;;;;;11.03;7.80;;;;;;;;;;5032551;28;20181;-73
2022/01/17 07:08:54;;;;;;;11.47;8.17;;;;;;;;;;5047646;28;20178;-73
2022/01/17 07:11:19;;;;;;;11.63;9.30;;;;;;;;;;5045758;28;20284;-74
2022/01/17 07:13:45;;;;;;;9.90;7.57;;;;;;;;;;5032195;28;20182;-73
2022/01/17 07:16:10;;;;;;;10.37;8.40;;;;;;;;;;5032191;28;20186;-73
2022/01/17 07:18:35;;;;;;;13.70;8.93;;;;;;;;;;5045865;28;20209;-73
2022/01/17 07:21:00;;;;;;;11.70;8.70;;;;;;;;;;5029729;28;20181;-73
2022/01/17 07:23:25;;;;;;;11.93;8.30;;;;;;;;;;5048448;28;20174;-73
2022/01/17 07:25:51;;;;;;;12.87;8.73;;;;;;;;;;5031764;28;20184;-73
2022/01/17 07:28:16;;;;;;;9.07;7.83;;;;;;;;;;5033546;28;20185;-73
2022/01/17 07:30:41;;;;;;;11.17;8.43;;;;;;;;;;5032205;28;20190;-73
2022/01/17 07:33:06;;;;;;;9.70;6.90;;;;;;;;;;5032490;28;20510;-73
2022/01/17 07:35:32;;;;;;;10.17;6.83;;;;;;;;;;5028565;28;20184;-73
2022/01/17 07:37:58;;;;;;;8.43;6.77;;;;;;;;;;5033706;28;20193;-73
2022/01/17 07:40:23;;;;;;;12.90;10.20;;;;;;;;;;5041104;28;20178;-73
2022/01/17 07:42:48;;;;;;;12.17;10.90;;;;;;;;;;5026189;28;20177;-73
2022/01/17 07:45:16;;;;;;;10.00;8.97;;;;;;;;;;5032784;28;20224;-73
2022/01/17 07:47:45;;;;;;;8.03;7.13;;;;;;;;;;5047944;28;20237;-73
2022/01/17 07:50:15;;;;;;;7.77;5.93;;;;;;;;;;5053057;28;20206;-73
2022/01/17 07:52:41;;;;;;;8.93;6.50;;;;;;;;;;5035938;28;20206;-73
2022/01/17 07:55:06;;;;;;;7.77;5.50;;;;;;;;;;5039143;28;20274;-73
2022/01/17 07:57:31;;;;;;;9.77;6.67;;;;;;;;;;5037003;28;20232;-73
2022/01/17 07:59:56;;;;;;;8.77;5.50;;;;;;;;;;5033380;28;20248;-73
2022/01/17 08:02:22;;;;;;;6.43;4.67;;;;;;;;;;5038607;28;20178;-73
2022/01/17 08:04:47;;;;;;;7.27;5.93;;;;;;;;;;5035836;28;20190;-73
2022/01/17 08:07:12;;;;;;;6.50;5.40;;;;;;;;;;5030561;28;20268;-73
2022/01/17 08:09:37;;;;;;;8.37;5.37;;;;;;;;;;5033755;28;20182;-73
2022/01/17 08:12:03;;;;;;;7.43;5.30;;;;;;;;;;5030591;28;20174;-73
2022/01/17 08:14:29;;;;;;;5.60;4.40;;;;;;;;;;5051090;28;20181;-73
2022/01/17 08:16:54;;;;;;;7.30;5.40;;;;;;;;;;5033015;28;20178;-73
2022/01/17 08:19:20;;;;;;;6.97;5.20;;;;;;;;;;5031752;28;20180;-73
2022/01/17 08:21:47;;;;;;;7.00;5.13;;;;;;;;;;5032774;28;20185;-73
2022/01/17 08:24:12;;;;;;;10.07;6.60;;;;;;;;;;5033648;28;20186;-73
2022/01/17 08:26:42;;;;;;;6.27;5.40;;;;;;;;;;5034367;28;20185;-73
2022/01/17 08:29:07;;;;;;;7.70;5.07;;;;;;;;;;5030688;28;20188;-73
2022/01/17 08:31:33;;;;;;;6.73;5.87;;;;;;;;;;5047974;28;20202;-73
2022/01/17 08:33:58;;;;;;;7.82;7.03;;;;;;;;;;5034942;28;20186;-73
2022/01/17 08:36:25;;;;;;;6.93;6.20;;;;;;;;;;5029837;28;20469;-73
2022/01/17 08:38:51;;;;;;;6.60;5.73;;;;;;;;;;5033551;28;20192;-73
2022/01/17 08:41:18;;;;;;;7.97;6.13;;;;;;;;;;5046493;28;20177;-73
2022/01/17 08:43:43;;;;;;;6.97;5.63;;;;;;;;;;5032697;28;20186;-73
2022/01/17 08:46:08;;;;;;;8.23;6.67;;;;;;;;;;5028559;28;20188;-73
2022/01/17 08:48:33;;;;;;;7.37;5.80;;;;;;;;;;5034075;28;20186;-73
2022/01/17 08:50:59;;;;;;;8.60;6.87;;;;;;;;;;5046831;28;20265;-73
2022/01/17 08:53:24;;;;;;;6.97;5.30;;;;;;;;;;5045827;28;20269;-77
2022/01/17 08:55:49;;;;;;;8.10;6.63;;;;;;;;;;5033737;28;20187;-77
2022/01/17 08:58:15;;;;;;;9.70;7.17;;;;;;;;;;5032412;28;20182;-77
2022/01/17 09:00:41;;;;;;;6.13;5.53;;;;;;;;;;5032752;28;20192;-76
2022/01/17 09:03:06;;;;;;;7.83;5.77;;;;;;;;;;5050329;28;20185;-77
2022/01/17 09:05:32;;;;;;;5.87;5.20;;;;;;;;;;5052503;28;20277;-77
2022/01/17 09:07:57;;;;;;;6.23;4.83;;;;;;;;;;5031860;28;20188;-77
2022/01/17 09:10:23;;;;;;;7.37;5.73;;;;;;;;;;5050941;28;20292;-77
2022/01/17 09:12:49;;;;;;;5.80;4.93;;;;;;;;;;5032665;28;20269;-77
2022/01/17 09:15:14;;;;;;;5.37;4.53;;;;;;;;;;5033827;28;20182;-77
2022/01/17 09:17:40;;;;;;;5.83;5.10;;;;;;;;;;5032911;28;20216;-76
2022/01/17 09:20:05;;;;;;;6.67;5.00;;;;;;;;;;5032171;28;20219;-76
2022/01/17 09:22:32;;;;;;;6.77;5.53;;;;;;;;;;5030531;28;20250;-77
2022/01/17 09:24:57;;;;;;;8.27;5.30;;;;;;;;;;5033983;28;20196;-76
2022/01/17 09:27:22;;;;;;;5.30;4.80;;;;;;;;;;5034301;28;20190;-76
2022/01/17 09:29:48;;;;;;;6.07;4.93;;;;;;;;;;5029303;28;20238;-77
2022/01/17 09:32:14;;;;;;;6.73;5.73;;;;;;;;;;5024939;28;20178;-76
2022/01/17 09:34:40;;;;;;;19.07;10.70;;;;;;;;;;5036893;28;20247;-76
2022/01/17 09:37:06;;;;;;;5.97;4.70;;;;;;;;;;5032702;28;20185;-76
2022/01/17 09:39:31;;;;;;;5.70;4.47;;;;;;;;;;5048412;28;20174;-76
2022/01/17 09:41:56;;;;;;;3.57;3.27;;;;;;;;;;5026618;28;20183;-76
2022/01/17 09:44:21;;;;;;;5.30;4.80;;;;;;;;;;5032548;28;20216;-76
2022/01/17 09:46:52;;;;;;;5.50;4.63;;;;;;;;;;5049893;28;20213;-76
2022/01/17 09:49:24;;;;;;;6.67;4.57;;;;;;;;;;5034006;28;20269;-76
2022/01/17 09:54:21;;;;;;;5.47;4.90;;;;;;;;;;5051424;28;20257;-76
2022/01/17 09:56:47;;;;;;;6.20;4.37;;;;;;;;;;5038827;28;20276;-76
2022/01/17 09:59:13;;;;;;;11.37;6.20;;;;;;;;;;5045269;28;20202;-76
2022/01/17 10:01:39;;;;;;;6.50;4.67;;;;;;;;;;5035348;28;20201;-76
2022/01/17 10:04:06;;;;;;;6.33;5.10;;;;;;;;;;5031547;28;20178;-76
2022/01/17 10:06:32;;;;;;;6.40;4.30;;;;;;;;;;5049590;28;20186;-76
2022/01/17 10:09:13;;;;;;;4.93;3.93;;;;;;;;;;5052883;28;20182;-76
2022/01/17 10:12:17;;;;;;;5.60;4.40;;;;;;;;;;5033857;28;20208;-76
2022/01/17 10:14:57;;;;;;;6.00;5.17;;;;;;;;;;4934811;29;20187;-76
2022/01/17 10:17:22;;;;;;;6.23;4.47;;;;;;;;;;4948588;28;20181;-76
2022/01/17 10:19:58;;;;;;;3.87;3.47;;;;;;;;;;4952315;28;20320;-76
2022/01/17 10:22:27;;;;;;;4.77;3.90;;;;;;;;;;4949257;28;20181;-76
2022/01/17 10:25:17;;;;;;;5.67;4.20;;;;;;;;;;4934918;29;20265;-76
2022/01/17 10:28:10;;;;;;;4.37;3.97;;;;;;;;;;4944200;28;20204;-76
2022/01/17 10:30:52;;;;;;;4.97;4.13;;;;;;;;;;4948203;28;20297;-76
2022/01/17 10:36:01;;;;;;;4.20;3.47;;;;;;;;;;4951494;28;20192;-76
2022/01/17 10:38:27;;;;;;;3.37;3.07;;;;;;;;;;4946709;28;20276;-76
2022/01/17 10:40:58;;;;;;;5.57;3.50;;;;;;;;;;4947983;28;20199;-76
2022/01/17 10:43:25;;;;;;;3.67;3.07;;;;;;;;;;4944401;29;20185;-77
2022/01/17 10:45:51;;;;;;;5.77;4.03;;;;;;;;;;4997962;28;20198;-77
2022/01/17 10:48:16;;;;;;;3.53;3.07;;;;;;;;;;5055935;28;20192;-77
2022/01/17 10:50:43;;;;;;;4.33;3.33;;;;;;;;;;5046801;28;20205;-76
2022/01/17 10:53:11;;;;;;;3.90;3.23;;;;;;;;;;5030705;28;20226;-77
2022/01/17 10:55:38;;;;;;;3.43;3.00;;;;;;;;;;5033843;28;20173;-77
2022/01/17 10:58:06;;;;;;;3.90;2.93;;;;;;;;;;5032279;28;20182;-77
2022/01/17 11:00:34;;;;;;;4.20;3.60;;;;;;;;;;5054070;28;20181;-77
2022/01/17 11:03:01;;;;;;;3.70;3.37;;;;;;;;;;5025741;28;20189;-77
2022/01/17 11:05:28;;;;;;;5.43;4.83;;;;;;;;;;5037162;28;20173;-77
2022/01/17 11:07:55;;;;;;;4.37;3.97;;;;;;;;;;5054541;28;20242;-76
2022/01/17 11:10:29;;;;;;;5.60;3.70;;;;;;;;;;5029919;28;20210;-77
2022/01/17 11:12:55;;;;;;;4.17;3.07;;;;;;;;;;5047157;28;20242;-77
2022/01/17 11:15:21;;;;;;;4.80;4.30;;;;;;;;;;5037467;28;20308;-76
2022/01/17 11:17:52;;;;;;;5.30;4.77;;;;;;;;;;5046292;28;20280;-77
2022/01/17 11:20:19;;;;;;;5.03;4.10;;;;;;;;;;5029235;28;20171;-77
2022/01/17 11:22:45;;;;;;;4.70;4.10;;;;;;;;;;5035415;28;20182;-77
2022/01/17 11:25:15;;;;;;;6.83;5.13;;;;;;;;;;5047474;28;20229;-77
2022/01/17 11:27:40;;;;;;;5.13;4.70;;;;;;;;;;5035789;28;20190;-77
2022/01/17 11:30:06;;;;;;;5.67;4.80;;;;;;;;;;5046452;28;20272;-77
2022/01/17 11:32:31;;;;;;;4.40;4.00;;;;;;;;;;5032454;28;20177;-77
2022/01/17 11:34:59;;;;;;;7.37;6.20;;;;;;;;;;5033172;28;20193;-77
2022/01/17 11:37:26;;;;;;;6.93;5.33;;;;;;;;;;5037518;28;20272;-77
2022/01/17 11:39:55;;;;;;;4.83;4.33;;;;;;;;;;5048167;28;20182;-77
2022/01/17 11:42:31;;;;;;;4.93;3.40;;;;;;;;;;5033232;28;20182;-77
2022/01/17 11:44:56;;;;;;;4.10;3.80;;;;;;;;;;5052285;28;20183;-77
2022/01/17 11:47:41;;;;;;;4.03;3.60;;;;;;;;;;5031682;28;20232;-77
2022/01/17 11:50:25;;;;;;;6.10;4.53;;;;;;;;;;5033076;28;20202;-77
2022/01/17 11:52:50;;;;;;;8.70;5.57;;;;;;;;;;5044074;28;20225;-77
2022/01/17 11:55:35;;;;;;;6.87;5.00;;;;;;;;;;5033162;28;20212;-77
2022/01/17 11:58:19;;;;;;;4.63;3.90;;;;;;;;;;5033089;28;20205;-77
2022/01/17 12:00:49;;;;;;;4.23;3.83;;;;;;;;;;5035013;28;20277;-77
2022/01/17 12:03:18;;;;;;;4.10;3.43;;;;;;;;;;5034342;28;20186;-77
2022/01/17 12:05:43;;;;;;;4.17;3.47;;;;;;;;;;5034730;28;21249;-77
2022/01/17 12:08:09;;;;;;;4.30;3.90;;;;;;;;;;5035385;28;20281;-77
2022/01/17 12:10:52;;;;;;;6.13;4.00;;;;;;;;;;5045726;28;20259;-77
2022/01/17 12:13:19;;;;;;;7.00;4.67;;;;;;;;;;5032056;28;20170;-77
2022/01/17 12:15:54;;;;;;;5.00;4.07;;;;;;;;;;5034518;28;20170;-77
2022/01/17 12:18:26;;;;;;;6.10;4.87;;;;;;;;;;5032420;28;20172;-77
2022/01/17 12:20:52;;;;;;;4.77;3.93;;;;;;;;;;5033013;28;20236;-77
2022/01/17 12:23:24;;;;;;;6.77;5.40;;;;;;;;;;5034787;28;20177;-77
2022/01/17 12:25:50;;;;;;;4.73;4.20;;;;;;;;;;5035999;28;20200;-77
2022/01/17 12:28:18;;;;;;;5.30;4.77;;;;;;;;;;5037000;28;20190;-77
2022/01/17 12:30:46;;;;;;;6.43;4.97;;;;;;;;;;5024459;28;20221;-77
2022/01/17 12:33:12;;;;;;;6.83;5.23;;;;;;;;;;5037796;28;20241;-77
2022/01/17 12:35:46;;;;;;;6.53;5.27;;;;;;;;;;5038627;28;20254;-77
2022/01/17 12:38:14;;;;;;;5.63;4.97;;;;;;;;;;5050906;28;20170;-77
2022/01/17 12:40:41;;;;;;;6.40;4.70;;;;;;;;;;5040045;28;20184;-77
2022/01/17 12:43:08;;;;;;;6.33;5.00;;;;;;;;;;5055154;28;20277;-77
2022/01/17 12:45:35;;;;;;;7.13;5.70;;;;;;;;;;5052458;28;20181;-77
2022/01/17 12:48:01;;;;;;;8.43;7.03;;;;;;;;;;5031772;28;20313;-77
2022/01/17 12:50:28;;;;;;;6.90;5.13;;;;;;;;;;5044079;28;20229;-77
2022/01/17 12:52:57;;;;;;;8.73;4.87;;;;;;;;;;5036353;28;20214;-77
2022/01/17 12:55:23;;;;;;;6.77;6.07;;;;;;;;;;5045228;28;20170;-77
2022/01/17 12:57:50;;;;;;;7.60;6.40;;;;;;;;;;5040355;28;20170;-77
2022/01/17 13:00:17;;;;;;;5.50;5.00;;;;;;;;;;5033274;28;20175;-77
2022/01/17 13:02:50;;;;;;;5.50;4.60;;;;;;;;;;5041404;28;20193;-77
2022/01/17 13:05:20;;;;;;;7.73;5.43;;;;;;;;;;5031443;28;20221;-77
2022/01/17 13:07:45;;;;;;;9.03;6.63;;;;;;;;;;5051929;28;20173;-77
2022/01/17 13:10:11;;;;;;;7.33;6.60;;;;;;;;;;5037198;28;20221;-77
2022/01/17 13:12:38;;;;;;;6.03;5.23;;;;;;;;;;5034326;28;20165;-77
2022/01/17 13:15:04;;;;;;;6.90;5.27;;;;;;;;;;5024440;28;20217;-77
2022/01/17 13:17:32;;;;;;;6.93;6.00;;;;;;;;;;5028507;28;20205;-78
2022/01/17 13:19:57;;;;;;;7.10;5.40;;;;;;;;;;5034482;28;20185;-78
2022/01/17 13:22:24;;;;;;;4.60;4.17;;;;;;;;;;5046205;28;20265;-78
2022/01/17 13:25:02;;;;;;;4.80;3.87;;;;;;;;;;5033222;28;20174;-78
2022/01/17 13:27:31;;;;;;;6.63;4.83;;;;;;;;;;5033278;28;20285;-77
2022/01/17 13:29:56;;;;;;;5.00;3.23;;;;;;;;;;5027020;28;20261;-77
2022/01/17 13:32:22;;;;;;;5.07;4.30;;;;;;;;;;5050859;28;20205;-77
2022/01/17 13:34:47;;;;;;;4.70;4.17;;;;;;;;;;5033103;28;20206;-77
2022/01/17 13:37:12;;;;;;;5.30;4.27;;;;;;;;;;5032303;28;20182;-78
2022/01/17 13:39:37;;;;;;;5.00;4.37;;;;;;;;;;5033602;28;20235;-78
2022/01/17 13:42:04;;;;;;;5.40;4.20;;;;;;;;;;5032209;28;20169;-78
2022/01/17 13:44:37;;;;;;;6.60;4.57;;;;;;;;;;5033236;28;20212;-77
2022/01/17 13:47:06;;;;;;;5.47;4.43;;;;;;;;;;5033705;28;20181;-78
2022/01/17 13:49:33;;;;;;;5.87;4.90;;;;;;;;;;5039472;28;20174;-78
2022/01/17 13:51:59;;;;;;;6.87;4.77;;;;;;;;;;5030780;28;20231;-78
2022/01/17 13:54:25;;;;;;;8.43;5.73;;;;;;;;;;5047125;28;20223;-78
2022/01/17 13:56:50;;;;;;;14.40;9.27;;;;;;;;;;5042736;28;20221;-77
2022/01/17 13:59:17;;;;;;;55.77;27.70;;;;;;;;;;5035305;28;20186;-78
2022/01/17 14:01:42;;;;;;;17.50;10.77;;;;;;;;;;5033084;28;20232;-77
2022/01/17 14:04:34;;;;;;;12.03;7.93;;;;;;;;;;5031910;28;20209;-78
2022/01/17 14:07:00;;;;;;;7.00;5.70;;;;;;;;;;5023848;28;20179;-77
2022/01/17 14:09:33;;;;;;;7.33;5.27;;;;;;;;;;5030941;28;20182;-78
2022/01/17 14:11:58;;;;;;;5.90;5.40;;;;;;;;;;5032543;28;20206;-78
2022/01/17 14:14:25;;;;;;;8.30;6.30;;;;;;;;;;5036049;28;20171;-78
2022/01/17 14:16:50;;;;;;;5.07;4.57;;;;;;;;;;5034489;28;20174;-77
2022/01/17 14:19:19;;;;;;;7.33;6.53;;;;;;;;;;5036800;28;20173;-78
2022/01/17 14:21:46;;;;;;;7.13;6.00;;;;;;;;;;5052388;28;20185;-78
2022/01/17 14:24:22;;;;;;;7.20;6.10;;;;;;;;;;5040024;28;20220;-77
2022/01/17 14:26:51;;;;;;;6.70;5.77;;;;;;;;;;5039428;28;20182;-78
2022/01/17 14:29:17;;;;;;;7.27;5.67;;;;;;;;;;5032930;28;20208;-77
2022/01/17 14:31:44;;;;;;;11.67;5.67;;;;;;;;;;5028959;28;20236;-77
2022/01/17 14:34:11;;;;;;;7.67;6.50;;;;;;;;;;5028543;28;20265;-78
2022/01/17 14:36:37;;;;;;;9.37;7.57;;;;;;;;;;5053440;28;20224;-78
2022/01/17 14:39:05;;;;;;;8.27;7.40;;;;;;;;;;5033916;28;20174;-77
2022/01/17 14:41:35;;;;;;;8.87;6.60;;;;;;;;;;5027679;28;20181;-77
2022/01/17 14:44:03;;;;;;;9.43;8.17;;;;;;;;;;5033879;28;20182;-78
2022/01/17 14:46:28;;;;;;;7.80;7.00;;;;;;;;;;5029951;28;20206;-78
2022/01/17 14:48:54;;;;;;;10.20;7.70;;;;;;;;;;5030594;28;20229;-78
2022/01/17 14:51:21;;;;;;;8.87;7.90;;;;;;;;;;5027326;28;20199;-77
2022/01/17 14:53:48;;;;;;;8.57;7.33;;;;;;;;;;5049660;28;20222;-78